createdAt,value
2022-08-02T00:00:59.126Z,96527.03
2022-08-02T00:03:27.156Z,96522.69
2022-08-02T00:05:55.150Z,96523.66
2022-08-02T00:08:24.543Z,96522.78
2022-08-02T00:10:52.580Z,96526.34
2022-08-02T00:13:20.736Z,96521.28
2022-08-02T00:15:48.861Z,96524.78
2022-08-02T00:18:16.894Z,96523.72
2022-08-02T00:20:45.009Z,96527.38
2022-08-02T00:23:13.083Z,96532.56
2022-08-02T00:25:54.383Z,96535.34
2022-08-02T00:28:27.694Z,96541.38
2022-08-02T00:30:56.348Z,96545.16
2022-08-02T00:34:26.818Z,96553.50
2022-08-02T00:36:12.375Z,96546.84
2022-08-02T00:38:40.473Z,96553.41
2022-08-02T00:41:13.973Z,96549.94
2022-08-02T00:43:42.230Z,96551.69
2022-08-02T00:46:10.443Z,96550.78
2022-08-02T00:48:43.079Z,96544.44
2022-08-02T00:51:11.953Z,96546.84
2022-08-02T00:53:40.037Z,96560.06
2022-08-02T00:56:08.085Z,96563.00
2022-08-02T00:58:37.500Z,96573.50
2022-08-02T01:01:05.558Z,96563.56
2022-08-02T01:03:33.591Z,96568.16
2022-08-02T01:06:16.672Z,96581.19
2022-08-02T01:08:44.792Z,96563.47
2022-08-02T01:11:12.996Z,96568.44
2022-08-02T01:13:42.394Z,96561.31
2022-08-02T01:16:14.273Z,96553.25
2022-08-02T01:18:45.241Z,96543.28
2022-08-02T01:21:15.927Z,96539.88
2022-08-02T01:23:47.101Z,96545.88
2022-08-02T01:26:20.094Z,96541.56
2022-08-02T01:28:51.076Z,96539.69
2022-08-02T01:31:20.678Z,96547.56
2022-08-02T01:33:49.583Z,96553.06
2022-08-02T01:36:18.944Z,96550.81
2022-08-02T01:38:48.232Z,96540.78
2022-08-02T01:41:16.727Z,96540.78
2022-08-02T01:43:44.719Z,96545.31
2022-08-02T01:46:14.293Z,96550.13
2022-08-02T01:48:42.504Z,96538.28
2022-08-02T01:51:12.508Z,96534.44
2022-08-02T01:53:40.524Z,96526.03
2022-08-02T01:56:08.558Z,96528.34
2022-08-02T01:58:37.268Z,96526.13
2022-08-02T02:01:05.397Z,96529.47
2022-08-02T02:03:34.971Z,96519.97
2022-08-02T02:06:09.659Z,96524.19
2022-08-02T02:08:39.245Z,96524.91
2022-08-02T02:12:05.938Z,96524.28
2022-08-02T02:13:56.214Z,96527.13
2022-08-02T02:16:24.260Z,96518.97
2022-08-02T02:18:53.714Z,96529.91
2022-08-02T02:21:21.871Z,96533.72
2022-08-02T02:23:50.957Z,96530.44
2022-08-02T02:26:28.453Z,96536.22
2022-08-02T02:28:59.630Z,96537.72
2022-08-02T02:31:27.744Z,96528.63
2022-08-02T02:33:58.993Z,96531.47
2022-08-02T02:36:27.064Z,96530.03
2022-08-02T02:38:55.146Z,96527.78
2022-08-02T02:41:23.697Z,96531.03
2022-08-02T02:43:51.744Z,96535.69
2022-08-02T02:46:21.570Z,96518.84
2022-08-02T02:48:49.610Z,96530.59
2022-08-02T02:51:19.101Z,96531.69
2022-08-02T02:54:30.089Z,96533.63
2022-08-02T02:56:37.004Z,96531.56
2022-08-02T02:59:05.035Z,96528.38
2022-08-02T03:01:55.620Z,96535.00
2022-08-02T03:04:21.044Z,96536.78
2022-08-02T03:06:50.421Z,96535.56
2022-08-02T03:09:18.422Z,96531.28
2022-08-02T03:11:46.426Z,96529.91
2022-08-02T03:14:14.490Z,96534.44
2022-08-02T03:16:45.742Z,96535.47
2022-08-02T03:19:13.791Z,96536.16
2022-08-02T03:21:42.404Z,96538.31
2022-08-02T03:24:11.830Z,96553.16
2022-08-02T03:26:40.024Z,96550.50
2022-08-02T03:29:10.214Z,96551.25
2022-08-02T03:31:40.611Z,96556.31
2022-08-02T03:34:08.660Z,96557.91
2022-08-02T03:36:36.803Z,96557.22
2022-08-02T03:39:04.943Z,96557.84
2022-08-02T03:41:34.423Z,96554.16
2022-08-02T03:44:02.374Z,96551.03
2022-08-02T03:46:30.384Z,96550.09
2022-08-02T03:48:58.490Z,96557.97
2022-08-02T03:51:26.629Z,96551.25
2022-08-02T03:53:54.726Z,96547.81
2022-08-02T03:56:23.632Z,96549.03
2022-08-02T03:58:53.578Z,96555.06
2022-08-02T04:01:21.682Z,96559.00
2022-08-02T04:03:49.826Z,96555.22
2022-08-02T04:06:17.834Z,96559.16
2022-08-02T04:08:55.338Z,96562.03
2022-08-02T04:11:32.147Z,96575.16
2022-08-02T04:14:02.260Z,96569.91
2022-08-02T04:16:31.201Z,96570.50
2022-08-02T04:18:59.767Z,96576.44
2022-08-02T04:21:48.580Z,96577.50
2022-08-02T04:24:18.986Z,96577.28
2022-08-02T04:26:48.773Z,96574.28
2022-08-02T04:29:19.338Z,96574.38
2022-08-02T04:31:47.455Z,96575.63
2022-08-02T04:34:15.823Z,96583.19
2022-08-02T04:36:44.048Z,96585.56
2022-08-02T04:39:12.126Z,96590.50
2022-08-02T04:41:40.732Z,96587.91
2022-08-02T04:44:11.992Z,96595.94
2022-08-02T04:46:41.703Z,96608.63
2022-08-02T04:49:09.937Z,96609.34
2022-08-02T04:51:38.866Z,96606.25
2022-08-02T04:54:09.975Z,96610.66
2022-08-02T04:56:38.352Z,96606.31
2022-08-02T04:59:06.595Z,96608.63
2022-08-02T05:01:35.457Z,96604.81
2022-08-02T05:04:04.960Z,96606.38
2022-08-02T05:06:33.012Z,96604.59
2022-08-02T05:09:01.071Z,96608.53
2022-08-02T05:11:34.270Z,96611.66
2022-08-02T05:14:04.775Z,96608.00
2022-08-02T05:16:32.805Z,96607.34
2022-08-02T05:19:01.079Z,96592.69
2022-08-02T05:21:31.436Z,96589.34
2022-08-02T05:23:59.461Z,96595.84
2022-08-02T05:26:27.553Z,96598.31
2022-08-02T05:28:55.543Z,96598.59
2022-08-02T05:31:23.546Z,96598.81
2022-08-02T05:33:51.623Z,96601.06
2022-08-02T05:36:21.611Z,96603.97
2022-08-02T05:38:52.003Z,96603.47
2022-08-02T05:41:20.211Z,96609.81
2022-08-02T05:43:48.237Z,96611.09
2022-08-02T05:46:16.289Z,96605.63
2022-08-02T05:48:45.609Z,96611.06
2022-08-02T05:51:14.761Z,96609.59
2022-08-02T05:53:46.686Z,96603.72
2022-08-02T05:56:24.101Z,96611.59
2022-08-02T05:58:54.261Z,96612.19
2022-08-02T06:01:25.120Z,96620.81
2022-08-02T06:03:53.388Z,96621.72
2022-08-02T06:06:23.325Z,96619.25
2022-08-02T06:08:52.034Z,96612.78
2022-08-02T06:11:22.642Z,96617.75
2022-08-02T06:13:50.780Z,96615.13
2022-08-02T06:16:32.187Z,96612.72
2022-08-02T06:19:01.197Z,96618.59
2022-08-02T06:22:29.956Z,96623.09
2022-08-02T06:24:19.599Z,96629.22
2022-08-02T06:26:52.523Z,96620.97
2022-08-02T06:29:20.947Z,96610.53
2022-08-02T06:31:51.854Z,96606.91
2022-08-02T06:34:19.799Z,96613.19
2022-08-02T06:36:50.219Z,96614.78
2022-08-02T06:39:20.849Z,96613.56
2022-08-02T06:44:50.717Z,96603.94
2022-08-02T06:47:20.106Z,96604.31
2022-08-02T06:49:51.475Z,96611.31
2022-08-02T06:52:27.406Z,96604.66
2022-08-02T06:54:56.809Z,96605.59
2022-08-02T06:57:26.219Z,96602.94
2022-08-02T06:59:54.189Z,96605.44
2022-08-02T07:02:22.207Z,96607.31
2022-08-02T07:04:50.238Z,96608.50
2022-08-02T07:07:18.236Z,96614.97
2022-08-02T07:09:56.363Z,96602.63
2022-08-02T07:12:31.323Z,96611.34
2022-08-02T07:14:59.516Z,96610.28
2022-08-02T07:17:27.704Z,96610.72
2022-08-02T07:19:55.710Z,96615.03
2022-08-02T07:22:24.634Z,96610.59
2022-08-02T07:24:52.748Z,96618.81
2022-08-02T07:27:20.995Z,96612.69
2022-08-02T07:29:50.407Z,96607.53
2022-08-02T07:32:18.783Z,96619.63
2022-08-02T07:34:50.526Z,96612.91
2022-08-02T07:37:35.241Z,96618.94
2022-08-02T07:40:14.087Z,96604.69
2022-08-02T07:45:30.418Z,96609.88
2022-08-02T07:47:58.394Z,96609.22
2022-08-02T07:50:28.264Z,96600.91
2022-08-02T07:52:57.930Z,96599.31
2022-08-02T07:55:35.276Z,96595.88
2022-08-02T07:58:11.159Z,96591.53
2022-08-02T08:00:44.406Z,96592.72
2022-08-02T08:03:12.659Z,96591.47
2022-08-02T08:05:40.871Z,96588.41
2022-08-02T08:08:11.257Z,96586.91
2022-08-02T08:10:43.216Z,96587.69
2022-08-02T08:13:11.287Z,96588.03
2022-08-02T08:15:39.310Z,96591.72
2022-08-02T08:18:09.067Z,96587.03
2022-08-02T08:20:39.666Z,96595.94
2022-08-02T08:23:07.711Z,96596.09
2022-08-02T08:25:39.706Z,96587.59
2022-08-02T08:28:09.254Z,96588.75
2022-08-02T08:30:37.577Z,96589.09
2022-08-02T08:33:05.560Z,96584.53
2022-08-02T08:35:35.178Z,96580.06
2022-08-02T08:38:07.478Z,96586.41
2022-08-02T08:40:37.146Z,96577.88
2022-08-02T08:43:05.169Z,96590.31
2022-08-02T08:45:33.274Z,96578.06
2022-08-02T08:48:02.168Z,96575.72
2022-08-02T08:50:31.715Z,96582.97
2022-08-02T08:53:03.518Z,96576.44
2022-08-02T08:55:31.871Z,96579.88
2022-08-02T08:58:00.323Z,96587.34
2022-08-02T09:00:28.471Z,96581.81
2022-08-02T09:02:56.506Z,96573.41
2022-08-02T09:05:25.222Z,96583.44
2022-08-02T09:07:53.798Z,96583.41
2022-08-02T09:10:36.316Z,96581.19
2022-08-02T09:13:37.737Z,96576.44
2022-08-02T09:15:56.453Z,96584.03
2022-08-02T09:18:30.444Z,96582.31
2022-08-02T09:20:59.273Z,96582.59
2022-08-02T09:23:35.784Z,96585.56
2022-08-02T09:26:07.574Z,96587.41
2022-08-02T09:28:36.512Z,96589.75
2022-08-02T09:31:05.596Z,96597.53
2022-08-02T09:33:33.741Z,96591.59
2022-08-02T09:36:07.147Z,96587.84
2022-08-02T09:38:36.170Z,96590.56
2022-08-02T09:41:05.847Z,96582.28
2022-08-02T09:43:37.931Z,96600.13
2022-08-02T09:46:23.365Z,96602.41
2022-08-02T09:48:53.556Z,96591.84
2022-08-02T09:51:22.242Z,96594.41
2022-08-02T09:53:58.531Z,96589.41
2022-08-02T09:56:44.219Z,96580.50
2022-08-02T09:59:13.057Z,96578.88
2022-08-02T10:01:44.337Z,96577.78
2022-08-02T10:04:22.484Z,96579.44
2022-08-02T10:06:51.304Z,96585.59
2022-08-02T10:09:19.522Z,96576.69
2022-08-02T10:11:49.099Z,96582.31
2022-08-02T10:14:18.263Z,96585.41
2022-08-02T10:16:46.303Z,96579.91
2022-08-02T10:19:14.313Z,96572.63
2022-08-02T10:21:46.881Z,96576.69
2022-08-02T10:24:15.599Z,96570.72
2022-08-02T10:26:44.236Z,96576.41
2022-08-02T10:29:16.264Z,96569.88
2022-08-02T10:31:45.129Z,96566.00
2022-08-02T10:34:14.153Z,96565.94
2022-08-02T10:36:42.522Z,96570.53
2022-08-02T10:39:10.557Z,96573.97
2022-08-02T10:41:42.465Z,96563.81
2022-08-02T10:44:24.267Z,96557.78
2022-08-02T10:46:54.668Z,96565.28
2022-08-02T10:49:40.226Z,96556.69
2022-08-02T10:52:09.445Z,96555.09
2022-08-02T10:54:38.413Z,96554.59
2022-08-02T10:57:16.080Z,96550.78
2022-08-02T10:59:44.361Z,96547.25
2022-08-02T11:02:14.258Z,96551.91
2022-08-02T11:05:00.262Z,96545.53
2022-08-02T11:07:32.775Z,96543.06
2022-08-02T11:10:00.952Z,96540.25
2022-08-02T11:12:29.068Z,96536.25
2022-08-02T11:14:59.786Z,96535.53
2022-08-02T11:17:38.115Z,96530.91
2022-08-02T11:20:25.046Z,96521.03
2022-08-02T11:22:53.475Z,96519.72
2022-08-02T11:26:02.720Z,96516.03
2022-08-02T11:28:25.473Z,96507.59
2022-08-02T11:31:00.479Z,96507.53
2022-08-02T11:33:33.687Z,96513.88
2022-08-02T11:36:02.400Z,96511.13
2022-08-02T11:38:30.367Z,96510.16
2022-08-02T11:40:58.384Z,96502.22
2022-08-02T11:43:27.798Z,96506.28
2022-08-02T11:45:56.658Z,96514.41
2022-08-02T11:48:31.187Z,96501.31
2022-08-02T11:51:10.440Z,96512.09
2022-08-02T11:53:48.406Z,96508.69
2022-08-02T11:56:24.123Z,96512.22
2022-08-02T11:59:03.320Z,96516.03
2022-08-02T12:01:31.909Z,96516.19
2022-08-02T12:04:03.273Z,96507.44
2022-08-02T12:06:33.205Z,96504.28
2022-08-02T12:09:04.448Z,96504.38
2022-08-02T12:11:39.042Z,96498.19
2022-08-02T12:14:07.932Z,96507.34
2022-08-02T12:16:53.905Z,96520.19
2022-08-02T12:19:23.384Z,96508.13
2022-08-02T12:22:06.344Z,96509.22
2022-08-02T12:24:35.936Z,96507.69
2022-08-02T12:27:03.948Z,96504.63
2022-08-02T12:29:55.714Z,96498.44
2022-08-02T12:32:24.726Z,96496.63
2022-08-02T12:35:01.604Z,96493.78
2022-08-02T12:37:29.813Z,96498.91
2022-08-02T12:39:59.244Z,96497.75
2022-08-02T12:42:27.230Z,96486.59
2022-08-02T12:44:56.020Z,96487.03
2022-08-02T12:47:24.111Z,96480.69
2022-08-02T12:50:12.004Z,96479.78
2022-08-02T12:56:01.546Z,96467.94
2022-08-02T12:58:15.154Z,96471.78
2022-08-02T13:00:52.733Z,96467.06
2022-08-02T13:04:10.815Z,96474.16
2022-08-02T13:06:41.228Z,96472.75
2022-08-02T13:08:58.743Z,96460.13
2022-08-02T13:11:28.563Z,96464.19
2022-08-02T13:13:56.704Z,96464.88
2022-08-02T13:16:30.691Z,96456.03
2022-08-02T13:19:00.153Z,96460.03
2022-08-02T13:21:40.375Z,96450.59
2022-08-02T13:24:32.753Z,96445.88
2022-08-02T13:27:08.051Z,96439.06
2022-08-02T13:29:36.503Z,96442.34
2022-08-02T13:32:04.667Z,96445.06
2022-08-02T13:34:32.676Z,96447.16
2022-08-02T13:37:00.728Z,96440.31
2022-08-02T13:39:28.772Z,96444.47
2022-08-02T13:41:56.784Z,96442.81
2022-08-02T13:44:26.171Z,96434.06
2022-08-02T13:46:54.158Z,96429.94
2022-08-02T13:49:49.669Z,96432.88
2022-08-02T13:52:10.500Z,96433.34
2022-08-02T13:54:38.874Z,96431.50
2022-08-02T13:57:06.865Z,96416.84
2022-08-02T13:59:56.937Z,96421.66
2022-08-02T14:02:24.316Z,96419.84
2022-08-02T14:04:52.327Z,96416.84
2022-08-02T14:07:20.365Z,96419.56
2022-08-02T14:09:48.488Z,96416.25
2022-08-02T14:12:17.033Z,96412.72
2022-08-02T14:14:46.656Z,96404.69
2022-08-02T14:17:14.662Z,96400.34
2022-08-02T14:19:42.755Z,96408.66
2022-08-02T14:22:12.376Z,96402.88
2022-08-02T14:24:41.587Z,96394.75
2022-08-02T14:27:09.811Z,96399.41
2022-08-02T14:29:37.909Z,96392.28
2022-08-02T14:32:07.708Z,96395.31
2022-08-02T14:34:35.790Z,96391.19
2022-08-02T14:37:03.847Z,96399.69
2022-08-02T14:39:43.647Z,96394.06
2022-08-02T14:42:19.820Z,96393.28
2022-08-02T14:44:47.978Z,96391.22
2022-08-02T14:47:17.308Z,96397.19
2022-08-02T14:49:49.894Z,96393.28
2022-08-02T14:52:18.494Z,96392.28
2022-08-02T14:54:46.822Z,96395.72
2022-08-02T14:57:15.034Z,96396.00
2022-08-02T14:59:43.199Z,96402.19
2022-08-02T15:02:13.256Z,96403.63
2022-08-02T15:04:44.024Z,96398.53
2022-08-02T15:07:12.535Z,96396.59
2022-08-02T15:09:40.605Z,96394.31
2022-08-02T15:12:09.313Z,96390.53
2022-08-02T15:14:37.300Z,96397.81
2022-08-02T15:17:05.430Z,96392.22
2022-08-02T15:19:56.177Z,96400.03
2022-08-02T15:22:22.970Z,96398.31
2022-08-02T15:24:50.977Z,96388.88
2022-08-02T15:27:18.999Z,96392.94
2022-08-02T15:29:47.584Z,96390.72
2022-08-02T15:32:17.452Z,96391.97
2022-08-02T15:34:46.098Z,96389.22
2022-08-02T15:37:14.133Z,96387.34
2022-08-02T15:39:43.506Z,96387.53
2022-08-02T15:42:11.806Z,96388.81
2022-08-02T15:44:40.168Z,96380.94
2022-08-02T15:47:08.410Z,96387.16
2022-08-02T15:49:41.049Z,96378.63
2022-08-02T15:52:10.375Z,96385.81
2022-08-02T15:54:38.747Z,96386.00
2022-08-02T15:57:08.253Z,96392.50
2022-08-02T15:59:36.300Z,96388.59
2022-08-02T16:02:04.533Z,96383.72
2022-08-02T16:04:32.987Z,96381.25
2022-08-02T16:07:01.503Z,96378.34
2022-08-02T16:09:29.929Z,96388.16
2022-08-02T16:11:58.012Z,96379.72
2022-08-02T16:14:27.441Z,96385.41
2022-08-02T16:16:56.118Z,96385.19
2022-08-02T16:19:47.880Z,96382.78
2022-08-02T16:22:12.727Z,96388.03
2022-08-02T16:24:41.057Z,96380.13
2022-08-02T16:27:09.422Z,96376.75
2022-08-02T16:29:38.909Z,96370.84
2022-08-02T16:32:07.043Z,96365.34
2022-08-02T16:34:56.737Z,96365.97
2022-08-02T16:37:23.551Z,96358.88
2022-08-02T16:39:51.606Z,96367.31
2022-08-02T16:42:25.565Z,96361.25
2022-08-02T16:44:55.292Z,96361.16
2022-08-02T16:47:42.749Z,96360.31
2022-08-02T16:50:11.512Z,96353.91
2022-08-02T16:52:39.739Z,96351.53
2022-08-02T16:55:10.244Z,96353.09
2022-08-02T16:57:43.466Z,96356.53
2022-08-02T17:00:19.561Z,96362.38
2022-08-02T17:02:47.626Z,96355.47
2022-08-02T17:05:15.759Z,96365.03
2022-08-02T17:08:07.384Z,96365.38
2022-08-02T17:10:33.538Z,96365.66
2022-08-02T17:13:11.095Z,96360.25
2022-08-02T17:16:08.768Z,96367.84
2022-08-02T17:18:29.688Z,96363.59
2022-08-02T17:20:57.987Z,96362.91
2022-08-02T17:24:03.999Z,96361.81
2022-08-02T17:26:14.196Z,96367.22
2022-08-02T17:29:03.698Z,96358.19
2022-08-02T17:31:43.078Z,96361.47
2022-08-02T17:34:16.703Z,96359.03
2022-08-02T17:36:44.907Z,96361.69
2022-08-02T17:39:17.910Z,96359.09
2022-08-02T17:41:49.245Z,96357.78
2022-08-02T17:44:37.821Z,96373.41
2022-08-02T17:47:11.889Z,96370.97
2022-08-02T17:49:47.825Z,96364.78
2022-08-02T17:52:51.673Z,96370.00
2022-08-02T17:55:05.932Z,96368.38
2022-08-02T18:00:21.935Z,96366.66
2022-08-02T18:02:54.942Z,96371.34
2022-08-02T18:05:39.228Z,96368.63
2022-08-02T18:08:08.626Z,96370.56
2022-08-02T18:10:36.710Z,96367.56
2022-08-02T18:13:05.338Z,96365.81
2022-08-02T18:15:33.489Z,96378.53
2022-08-02T18:18:03.035Z,96378.47
2022-08-02T18:20:31.093Z,96375.06
2022-08-02T18:22:59.236Z,96374.91
2022-08-02T18:25:37.240Z,96376.69
2022-08-02T18:28:15.094Z,96377.16
2022-08-02T18:30:43.573Z,96379.34
2022-08-02T18:33:55.501Z,96380.88
2022-08-02T18:36:00.924Z,96376.25
2022-08-02T18:38:31.010Z,96375.50
2022-08-02T18:41:02.386Z,96384.63
2022-08-02T18:43:31.221Z,96386.34
2022-08-02T18:46:05.534Z,96382.53
2022-08-02T18:48:46.603Z,96383.06
2022-08-02T18:51:16.071Z,96385.50
2022-08-02T18:53:48.859Z,96385.75
2022-08-02T18:56:20.085Z,96385.09
2022-08-02T18:58:52.484Z,96388.56
2022-08-02T19:01:32.367Z,96394.63
2022-08-02T19:04:05.052Z,96393.25
2022-08-02T19:06:33.172Z,96395.47
2022-08-02T19:09:11.038Z,96397.28
2022-08-02T19:11:47.463Z,96406.69
2022-08-02T19:14:19.170Z,96399.00
2022-08-02T19:16:55.766Z,96390.47
2022-08-02T19:19:29.167Z,96402.41
2022-08-02T19:22:26.521Z,96402.66
2022-08-02T19:24:47.124Z,96397.44
2022-08-02T19:27:25.710Z,96397.47
2022-08-02T19:30:00.058Z,96397.59
2022-08-02T19:32:41.763Z,96397.75
2022-08-02T19:35:30.666Z,96402.78
2022-08-02T19:38:08.737Z,96403.50
2022-08-02T19:40:37.253Z,96408.78
2022-08-02T19:44:26.682Z,96418.63
2022-08-02T19:45:53.704Z,96415.59
2022-08-02T19:48:25.487Z,96416.25
2022-08-02T19:51:01.062Z,96421.97
2022-08-02T19:53:47.194Z,96415.22
2022-08-02T19:56:24.818Z,96421.28
2022-08-02T19:58:54.768Z,96426.91
2022-08-02T20:01:36.782Z,96431.47
2022-08-02T20:04:06.779Z,96419.06
2022-08-02T20:06:36.692Z,96425.94
2022-08-02T20:09:04.829Z,96425.38
2022-08-02T20:11:35.120Z,96429.72
2022-08-02T20:14:04.089Z,96433.31
2022-08-02T20:16:32.987Z,96425.69
2022-08-02T20:19:01.315Z,96429.25
2022-08-02T20:21:36.546Z,96422.28
2022-08-02T20:24:09.855Z,96426.53
2022-08-02T20:26:47.417Z,96426.78
2022-08-02T20:29:17.744Z,96421.63
2022-08-02T20:32:05.737Z,96429.50
2022-08-02T20:34:36.304Z,96420.28
2022-08-02T20:38:00.131Z,96420.13
2022-08-02T20:39:54.142Z,96419.22
2022-08-02T20:42:22.607Z,96430.50
2022-08-02T20:44:54.009Z,96431.31
2022-08-02T20:47:27.772Z,96426.00
2022-08-02T20:50:15.235Z,96422.97
2022-08-02T20:52:43.433Z,96428.16
2022-08-02T20:55:17.333Z,96420.56
2022-08-02T20:58:00.119Z,96425.25
2022-08-02T21:00:29.628Z,96428.19
2022-08-02T21:02:57.786Z,96430.78
2022-08-02T21:05:43.482Z,96430.44
2022-08-02T21:08:15.544Z,96430.94
2022-08-02T21:10:52.033Z,96428.66
2022-08-02T21:13:22.878Z,96427.59
2022-08-02T21:15:51.436Z,96420.63
2022-08-02T21:18:22.758Z,96416.19
2022-08-02T21:21:03.088Z,96421.97
2022-08-02T21:23:31.123Z,96423.97
2022-08-02T21:26:06.548Z,96416.00
2022-08-02T21:28:44.223Z,96413.16
2022-08-02T21:31:14.974Z,96409.06
2022-08-02T21:33:56.625Z,96410.56
2022-08-02T21:36:31.370Z,96413.13
2022-08-02T21:39:04.399Z,96410.31
2022-08-02T21:41:39.237Z,96403.47
2022-08-02T21:44:16.385Z,96401.84
2022-08-02T21:46:45.860Z,96401.38
2022-08-02T21:49:14.508Z,96406.94
2022-08-02T21:51:49.378Z,96401.63
2022-08-02T21:54:20.146Z,96399.75
2022-08-02T21:56:52.136Z,96403.06
2022-08-02T21:59:26.182Z,96405.34
2022-08-02T22:01:56.436Z,96404.13
2022-08-02T22:04:25.760Z,96410.34
2022-08-02T22:06:55.031Z,96398.22
2022-08-02T22:09:44.014Z,96391.91
2022-08-02T22:12:16.993Z,96405.91
2022-08-02T22:14:49.481Z,96410.66
2022-08-02T22:17:51.963Z,96408.41
2022-08-02T22:20:12.236Z,96417.31
2022-08-02T22:22:40.724Z,96427.91
2022-08-02T22:25:10.091Z,96431.53
2022-08-02T22:28:11.841Z,96427.72
2022-08-02T22:30:39.372Z,96424.16
2022-08-02T22:33:33.344Z,96424.53
2022-08-02T22:36:02.093Z,96421.84
2022-08-02T22:38:30.227Z,96421.63
2022-08-02T22:40:58.368Z,96430.34
2022-08-02T22:43:27.784Z,96425.91
2022-08-02T22:45:59.494Z,96431.16
2022-08-02T22:48:27.756Z,96432.94
2022-08-02T22:50:56.870Z,96432.41
2022-08-02T22:53:36.193Z,96428.63
2022-08-02T22:56:04.616Z,96431.91
2022-08-02T22:58:34.036Z,96430.50
2022-08-02T22:58:50.939Z,96371.13
2022-08-02T23:01:02.175Z,96435.44
2022-08-02T23:03:30.613Z,96432.63
2022-08-02T23:05:58.641Z,96435.59
2022-08-02T23:08:26.704Z,96439.44
2022-08-02T23:10:54.836Z,96453.13
2022-08-02T23:13:26.685Z,96436.69
2022-08-02T23:16:14.816Z,96436.19
2022-08-02T23:19:00.148Z,96435.91
2022-08-02T23:22:01.115Z,96437.53
2022-08-02T23:24:22.523Z,96432.75
2022-08-02T23:26:50.678Z,96441.06
2022-08-02T23:29:18.890Z,96438.75
2022-08-02T23:31:48.300Z,96438.56
2022-08-02T23:34:17.476Z,96438.19
2022-08-02T23:36:45.536Z,96446.22
2022-08-02T23:39:13.557Z,96444.50
2022-08-02T23:41:41.586Z,96447.16
2022-08-02T23:44:14.508Z,96442.44
2022-08-02T23:46:43.025Z,96445.59
2022-08-02T23:49:13.213Z,96444.88
2022-08-02T23:51:41.440Z,96441.81
2022-08-02T23:54:09.615Z,96437.25
2022-08-02T23:56:37.695Z,96446.13
2022-08-02T23:59:07.617Z,96441.56
